Time;durP1;ratioP1;P1;durP2;ratioP2;P2;SDS_P1;SDS_P2;PMS_P1;PMS_P2;Temp;Humidity;BMP_temperature;BMP_pressure;BME280_temperature;BME280_humidity;BME280_pressure;Samples;Min_cycle;Max_cycle;Signal;HPM_P1;HPM_P2
2021/06/18 00:01:58;;;;;;;9.82;4.15;;;20.80;71.10;;;;;;6209691;23;20201;-76
2021/06/18 00:04:26;;;;;;;6.35;3.70;;;20.80;71.70;;;;;;6211021;23;20095;-76
2021/06/18 00:06:53;;;;;;;7.00;3.53;;;20.70;71.50;;;;;;6217519;23;20044;-76
2021/06/18 00:09:27;;;;;;;5.95;3.88;;;20.70;71.90;;;;;;6213432;23;20227;-76
2021/06/18 00:11:55;;;;;;;6.97;3.58;;;20.60;72.20;;;;;;6218508;23;20028;-76
2021/06/18 00:14:22;;;;;;;5.57;3.60;;;20.50;72.40;;;;;;6215966;23;20055;-76
2021/06/18 00:16:50;;;;;;;6.20;4.43;;;20.50;72.50;;;;;;6219306;23;20204;-76
2021/06/18 00:19:17;;;;;;;5.75;3.47;;;20.50;72.60;;;;;;6217741;23;20031;-76
2021/06/18 00:21:44;;;;;;;5.85;4.00;;;20.50;72.40;;;;;;6218544;23;20020;-77
2021/06/18 00:24:12;;;;;;;8.50;3.95;;;20.50;72.20;;;;;;6222290;23;20024;-76
2021/06/18 00:26:40;;;;;;;5.72;3.40;;;20.50;72.00;;;;;;6219052;23;20017;-76
2021/06/18 00:29:07;;;;;;;9.63;3.42;;;20.50;72.20;;;;;;6217200;23;20017;-76
2021/06/18 00:31:41;;;;;;;6.40;3.45;;;20.40;71.80;;;;;;6218663;23;20229;-76
2021/06/18 00:34:08;;;;;;;6.38;3.42;;;20.40;71.60;;;;;;6239574;23;20047;-76
2021/06/18 00:36:35;;;;;;;6.43;3.53;;;20.30;71.30;;;;;;6218437;23;20267;-76
2021/06/18 00:39:03;;;;;;;6.28;4.00;;;20.30;71.60;;;;;;6220819;23;20176;-76
2021/06/18 00:41:31;;;;;;;7.40;3.10;;;20.30;71.70;;;;;;6219800;23;20016;-76
2021/06/18 00:43:59;;;;;;;6.72;3.70;;;20.20;72.30;;;;;;6218379;23;20029;-76
2021/06/18 00:46:26;;;;;;;6.63;3.70;;;20.20;72.60;;;;;;6218381;23;20071;-76
2021/06/18 00:48:54;;;;;;;6.05;3.30;;;20.10;72.80;;;;;;6220710;23;20033;-76
2021/06/18 00:51:21;;;;;;;6.13;3.80;;;20.10;72.90;;;;;;6219543;23;20281;-77
2021/06/18 00:53:48;;;;;;;6.60;3.47;;;20.10;73.10;;;;;;6220263;23;20032;-77
2021/06/18 00:56:16;;;;;;;5.40;3.20;;;20.10;72.40;;;;;;6220529;23;20025;-76
2021/06/18 00:58:43;;;;;;;4.32;2.88;;;20.10;72.10;;;;;;6220093;23;20334;-77
2021/06/18 01:01:12;;;;;;;5.38;3.20;;;20.10;72.10;;;;;;6215329;23;20108;-77
2021/06/18 01:03:39;;;;;;;6.78;3.83;;;20.10;72.00;;;;;;6218732;23;20039;-76
2021/06/18 01:06:07;;;;;;;9.88;4.00;;;20.00;72.20;;;;;;6220163;23;20211;-76
2021/06/18 01:08:44;;;;;;;6.10;3.67;;;19.90;73.00;;;;;;6213207;23;20040;-76
2021/06/18 01:11:18;;;;;;;6.15;3.67;;;19.90;72.60;;;;;;6218007;23;20084;-76
2021/06/18 01:13:53;;;;;;;7.10;3.53;;;19.90;72.70;;;;;;6223944;23;20041;-76
2021/06/18 01:16:27;;;;;;;5.65;3.15;;;19.80;72.80;;;;;;6219386;23;20029;-77
2021/06/18 01:19:00;;;;;;;6.25;3.25;;;19.80;73.00;;;;;;6219965;23;20036;-76
2021/06/18 01:21:33;;;;;;;5.38;3.38;;;19.80;72.80;;;;;;6219718;23;20075;-76
2021/06/18 01:24:34;;;;;;;6.93;3.53;;;19.80;72.80;;;;;;6222036;23;20025;-76
2021/06/18 01:27:19;;;;;;;5.90;3.47;;;19.70;73.00;;;;;;6205107;23;20066;-77
2021/06/18 01:29:51;;;;;;;6.57;3.75;;;19.70;73.20;;;;;;6219771;23;20067;-77
2021/06/18 01:32:24;;;;;;;5.20;3.03;;;19.70;73.20;;;;;;6219794;23;20055;-77
2021/06/18 01:34:54;;;;;;;7.28;3.40;;;19.60;73.10;;;;;;6218048;23;20031;-77
2021/06/18 01:37:27;;;;;;;5.93;4.03;;;19.60;73.40;;;;;;6218788;23;20016;-77
2021/06/18 01:39:57;;;;;;;5.55;3.60;;;19.60;73.70;;;;;;6218323;23;20016;-77
2021/06/18 01:42:27;;;;;;;5.32;3.45;;;19.50;74.00;;;;;;6209755;23;20012;-77
2021/06/18 01:44:57;;;;;;;7.20;3.55;;;19.50;74.20;;;;;;6216760;23;20052;-77
2021/06/18 01:47:25;;;;;;;5.97;4.00;;;19.40;74.20;;;;;;6217485;23;20025;-77
2021/06/18 01:49:54;;;;;;;6.57;3.47;;;19.30;74.50;;;;;;6242000;23;20036;-77
2021/06/18 01:52:23;;;;;;;4.50;3.40;;;19.30;74.50;;;;;;6217552;23;20028;-77
2021/06/18 01:54:51;;;;;;;5.85;3.35;;;19.30;74.70;;;;;;6215581;23;20618;-77
2021/06/18 01:57:21;;;;;;;6.57;3.63;;;19.20;74.60;;;;;;6215760;23;20044;-76
2021/06/18 01:59:50;;;;;;;5.40;3.45;;;19.20;74.40;;;;;;6216489;23;20046;-77
2021/06/18 02:02:20;;;;;;;9.02;3.90;;;19.20;74.40;;;;;;6211568;23;20020;-77
2021/06/18 02:04:48;;;;;;;5.75;3.45;;;19.20;74.30;;;;;;6216048;23;20036;-77
2021/06/18 02:07:16;;;;;;;6.75;3.88;;;19.30;74.00;;;;;;6215722;23;20052;-77
2021/06/18 02:09:46;;;;;;;6.57;3.58;;;19.30;74.50;;;;;;6214349;23;20215;-77
2021/06/18 02:12:15;;;;;;;8.20;3.90;;;19.10;74.80;;;;;;6215667;23;20024;-77
2021/06/18 02:14:43;;;;;;;5.57;3.88;;;19.10;75.00;;;;;;6217158;23;20024;-77
2021/06/18 02:17:12;;;;;;;6.15;3.78;;;19.10;75.00;;;;;;6217602;23;20035;-76
2021/06/18 02:19:43;;;;;;;6.25;3.35;;;19.10;75.30;;;;;;6216497;23;20044;-76
2021/06/18 02:22:12;;;;;;;6.82;4.18;;;19.10;75.30;;;;;;6216434;23;20028;-76
2021/06/18 02:24:40;;;;;;;6.53;3.42;;;19.00;75.20;;;;;;6215269;23;20468;-77
2021/06/18 02:27:11;;;;;;;5.80;3.58;;;19.00;75.20;;;;;;6217162;23;20309;-76
2021/06/18 02:29:39;;;;;;;5.25;3.58;;;19.00;75.30;;;;;;6219686;23;20051;-77
2021/06/18 02:32:09;;;;;;;5.90;3.15;;;19.00;75.20;;;;;;6220156;23;20203;-77
2021/06/18 02:34:38;;;;;;;6.10;3.58;;;19.00;75.30;;;;;;6219815;23;20051;-77
2021/06/18 02:37:07;;;;;;;5.30;3.57;;;18.90;75.40;;;;;;6220522;23;20284;-77
2021/06/18 02:39:36;;;;;;;6.93;3.58;;;18.90;75.50;;;;;;6218189;23;20048;-77
2021/06/18 02:42:05;;;;;;;6.93;3.65;;;18.80;75.70;;;;;;6243663;23;20028;-77
2021/06/18 02:44:32;;;;;;;9.13;3.80;;;18.70;75.60;;;;;;6219886;23;20024;-77
2021/06/18 02:47:05;;;;;;;5.70;3.85;;;18.80;75.80;;;;;;6219822;23;20295;-77
2021/06/18 02:49:41;;;;;;;10.20;4.50;;;18.80;75.70;;;;;;6219057;23;20346;-77
2021/06/18 02:52:15;;;;;;;6.93;3.83;;;18.70;75.70;;;;;;6217367;23;20043;-77
2021/06/18 02:54:46;;;;;;;6.00;3.50;;;18.70;75.60;;;;;;6215562;23;20029;-76
2021/06/18 02:57:20;;;;;;;6.18;3.75;;;18.60;75.80;;;;;;6213755;23;20030;-76
2021/06/18 02:59:57;;;;;;;6.35;3.60;;;18.70;75.80;;;;;;6215502;23;20031;-77
2021/06/18 03:02:30;;;;;;;7.55;4.47;;;18.70;75.80;;;;;;6210024;23;20024;-77
2021/06/18 03:05:00;;;;;;;6.00;3.70;;;18.60;75.70;;;;;;6217766;23;20102;-77
2021/06/18 03:07:32;;;;;;;7.05;3.75;;;18.60;75.70;;;;;;6217216;23;20152;-76
2021/06/18 03:10:04;;;;;;;7.95;3.08;;;18.60;75.70;;;;;;6219821;23;20224;-77
2021/06/18 03:12:33;;;;;;;5.93;3.90;;;18.60;75.70;;;;;;6222675;23;20012;-76
2021/06/18 03:15:04;;;;;;;8.60;4.23;;;18.60;75.80;;;;;;6220901;23;20046;-77
2021/06/18 03:17:34;;;;;;;8.63;4.32;;;18.60;75.90;;;;;;6218695;23;20051;-76
2021/06/18 03:20:08;;;;;;;6.28;3.65;;;18.50;76.20;;;;;;6220420;23;20102;-76
2021/06/18 03:22:38;;;;;;;7.22;3.80;;;18.40;76.30;;;;;;6219818;23;20020;-76
2021/06/18 03:25:11;;;;;;;7.50;3.92;;;18.40;76.50;;;;;;6218707;23;20024;-76
2021/06/18 03:27:39;;;;;;;6.22;3.75;;;18.30;76.90;;;;;;6215702;23;20020;-76
2021/06/18 03:30:08;;;;;;;7.40;3.70;;;18.40;76.90;;;;;;6213570;23;20236;-76
2021/06/18 03:32:40;;;;;;;6.63;3.65;;;18.40;76.70;;;;;;6215997;23;20077;-76
2021/06/18 03:35:09;;;;;;;8.43;3.85;;;18.40;76.60;;;;;;6217196;23;20079;-76
2021/06/18 03:37:39;;;;;;;7.82;3.95;;;18.50;76.60;;;;;;6218216;23;20043;-76
2021/06/18 03:40:08;;;;;;;6.03;3.60;;;18.40;76.60;;;;;;6217173;23;20031;-76
2021/06/18 03:42:37;;;;;;;9.32;4.63;;;18.40;76.70;;;;;;6219406;23;20038;-76
2021/06/18 03:45:06;;;;;;;5.97;3.72;;;18.40;77.10;;;;;;6220321;23;20035;-77
2021/06/18 03:47:35;;;;;;;6.35;3.92;;;18.30;77.20;;;;;;6215828;23;20021;-76
2021/06/18 03:50:03;;;;;;;6.28;3.60;;;18.30;77.30;;;;;;6215949;23;20075;-76
2021/06/18 03:52:31;;;;;;;6.38;3.60;;;18.40;76.90;;;;;;6219826;23;20013;-76
2021/06/18 03:55:00;;;;;;;7.88;3.40;;;18.50;76.50;;;;;;6221649;23;20715;-76
2021/06/18 03:57:28;;;;;;;8.43;4.03;;;18.50;76.40;;;;;;6220328;23;20029;-76
2021/06/18 03:59:57;;;;;;;6.30;3.60;;;18.50;76.50;;;;;;6220381;23;20024;-76
2021/06/18 04:02:26;;;;;;;8.38;4.75;;;18.50;76.30;;;;;;6214010;23;20327;-76
2021/06/18 04:04:56;;;;;;;8.52;3.72;;;18.50;76.10;;;;;;6218869;23;20017;-77
2021/06/18 04:07:23;;;;;;;5.38;2.75;;;18.50;75.80;;;;;;6218190;23;20220;-77
2021/06/18 04:09:52;;;;;;;7.25;3.72;;;18.50;76.90;;;;;;6243972;23;20362;-77
2021/06/18 04:12:21;;;;;;;6.05;3.30;;;18.50;75.60;;;;;;6215440;23;20013;-77
2021/06/18 04:14:48;;;;;;;8.00;3.40;;;18.60;76.20;;;;;;6217451;23;20024;-77
2021/06/18 04:17:15;;;;;;;8.50;2.90;;;18.60;75.10;;;;;;6219923;23;20017;-76
2021/06/18 04:19:45;;;;;;;5.80;3.65;;;18.60;75.90;;;;;;6219657;23;20027;-76
2021/06/18 04:22:17;;;;;;;7.03;3.58;;;18.60;75.10;;;;;;6219417;23;20032;-76
2021/06/18 04:24:44;;;;;;;6.50;3.33;;;18.70;74.50;;;;;;6219443;23;20090;-76
2021/06/18 04:27:11;;;;;;;6.72;3.95;;;18.80;74.10;;;;;;6218937;23;20028;-76
2021/06/18 04:29:40;;;;;;;8.85;4.22;;;18.80;74.10;;;;;;6222722;23;20016;-76
2021/06/18 04:32:08;;;;;;;6.03;3.10;;;18.90;74.00;;;;;;6220202;23;20024;-77
2021/06/18 04:34:35;;;;;;;6.10;3.40;;;18.90;74.20;;;;;;6223625;23;20024;-77
2021/06/18 04:37:02;;;;;;;6.45;3.67;;;18.90;74.50;;;;;;6221252;23;20028;-76
2021/06/18 04:39:31;;;;;;;6.55;3.30;;;18.90;74.50;;;;;;6220461;23;20028;-76
2021/06/18 04:42:00;;;;;;;7.13;3.63;;;19.00;74.00;;;;;;6220371;23;20024;-77
2021/06/18 04:44:29;;;;;;;8.18;3.97;;;19.10;73.60;;;;;;6221752;23;20091;-77
2021/06/18 04:47:01;;;;;;;5.75;3.15;;;19.20;72.50;;;;;;6214038;23;20025;-76
2021/06/18 04:49:37;;;;;;;6.28;3.50;;;19.30;71.80;;;;;;6218195;23;20029;-76
2021/06/18 04:52:10;;;;;;;7.47;4.00;;;19.30;71.80;;;;;;6218774;23;20030;-76
2021/06/18 04:54:37;;;;;;;9.40;4.38;;;19.40;72.00;;;;;;6218569;23;20043;-76
2021/06/18 04:57:05;;;;;;;8.07;3.55;;;19.40;72.20;;;;;;6219868;23;20062;-77
2021/06/18 04:59:35;;;;;;;8.65;3.97;;;19.50;72.40;;;;;;6220472;23;20083;-76
2021/06/18 05:02:04;;;;;;;7.47;3.60;;;19.60;72.40;;;;;;6216490;23;20055;-76
2021/06/18 05:04:31;;;;;;;15.83;4.83;;;19.60;72.70;;;;;;6221578;23;20039;-76
2021/06/18 05:06:58;;;;;;;9.60;4.13;;;19.80;72.20;;;;;;6220392;23;20040;-76
2021/06/18 05:09:26;;;;;;;7.10;3.75;;;19.90;71.30;;;;;;6218852;23;20040;-76
2021/06/18 05:11:53;;;;;;;8.27;3.40;;;20.00;71.10;;;;;;6221113;23;20384;-76
2021/06/18 05:14:20;;;;;;;8.32;3.42;;;20.10;71.50;;;;;;6218867;23;20024;-76
2021/06/18 05:16:47;;;;;;;8.15;3.78;;;20.20;71.00;;;;;;6217816;23;20042;-76
2021/06/18 05:19:16;;;;;;;8.38;3.65;;;20.20;70.10;;;;;;6219626;23;20025;-76
2021/06/18 05:21:43;;;;;;;9.60;3.42;;;20.20;70.30;;;;;;6218947;23;20334;-76
2021/06/18 05:24:10;;;;;;;9.00;3.25;;;20.40;70.10;;;;;;6219038;23;20086;-76
2021/06/18 05:26:37;;;;;;;8.13;3.08;;;20.50;68.40;;;;;;6217367;23;20076;-76
2021/06/18 05:29:05;;;;;;;8.20;4.30;;;20.60;68.70;;;;;;6219855;23;20308;-76
2021/06/18 05:31:32;;;;;;;8.10;3.75;;;20.80;67.20;;;;;;6219143;23;20343;-76
2021/06/18 05:33:59;;;;;;;5.75;3.13;;;20.80;67.10;;;;;;6219025;23;20346;-76
2021/06/18 05:36:27;;;;;;;6.68;3.63;;;21.00;67.70;;;;;;6217329;23;20047;-76
2021/06/18 05:38:55;;;;;;;6.97;3.53;;;21.20;66.60;;;;;;6216704;23;20031;-77
2021/06/18 05:41:22;;;;;;;6.30;3.17;;;21.40;65.60;;;;;;6217544;23;20331;-76
2021/06/18 05:43:49;;;;;;;7.35;2.97;;;21.40;65.50;;;;;;6216901;23;20016;-76
2021/06/18 05:46:16;;;;;;;5.47;3.38;;;21.50;65.30;;;;;;6215426;23;20029;-76
2021/06/18 05:48:43;;;;;;;5.03;3.40;;;21.60;65.20;;;;;;6219427;23;20017;-76
2021/06/18 05:51:11;;;;;;;6.22;3.60;;;21.70;65.60;;;;;;6216960;23;20021;-75
2021/06/18 05:53:39;;;;;;;4.82;3.00;;;21.80;65.00;;;;;;6218984;23;20013;-76
2021/06/18 05:56:07;;;;;;;5.82;3.20;;;22.00;65.30;;;;;;6216288;23;20032;-76
2021/06/18 05:58:34;;;;;;;6.70;3.92;;;22.10;64.80;;;;;;6217169;23;20020;-76
2021/06/18 06:01:02;;;;;;;4.95;3.03;;;22.10;64.50;;;;;;6212909;23;20116;-75
2021/06/18 06:03:33;;;;;;;5.82;3.25;;;22.20;65.00;;;;;;6215018;23;20043;-75
2021/06/18 06:06:00;;;;;;;6.65;3.20;;;22.30;64.70;;;;;;6216326;23;20032;-77
2021/06/18 06:08:31;;;;;;;6.45;3.40;;;22.40;64.40;;;;;;6217237;23;20047;-76
2021/06/18 06:10:59;;;;;;;6.20;3.50;;;22.50;63.70;;;;;;6217232;23;20024;-76
2021/06/18 06:13:26;;;;;;;4.43;3.05;;;22.60;63.10;;;;;;6219155;23;20021;-76
2021/06/18 06:15:54;;;;;;;5.43;2.92;;;22.70;63.60;;;;;;6214832;23;20219;-76
2021/06/18 06:18:21;;;;;;;4.82;2.80;;;22.80;62.70;;;;;;6216113;23;20316;-76
2021/06/18 06:20:50;;;;;;;7.60;3.75;;;23.00;62.70;;;;;;6212382;23;20217;-76
2021/06/18 06:23:18;;;;;;;4.60;2.70;;;23.20;61.50;;;;;;6217014;23;20211;-76
2021/06/18 06:25:45;;;;;;;5.15;2.85;;;23.30;61.40;;;;;;6215571;23;20374;-76
2021/06/18 06:28:15;;;;;;;5.80;2.97;;;23.40;61.50;;;;;;6216943;23;20316;-76
2021/06/18 06:30:42;;;;;;;4.28;2.65;;;23.60;60.60;;;;;;6215237;23;20036;-75
2021/06/18 06:33:09;;;;;;;4.75;2.70;;;23.60;60.60;;;;;;6219709;23;20032;-75
2021/06/18 06:35:36;;;;;;;6.28;2.95;;;23.70;59.90;;;;;;6214412;23;20048;-76
2021/06/18 06:38:04;;;;;;;8.77;3.53;;;23.80;59.90;;;;;;6216262;23;20029;-76
2021/06/18 06:40:38;;;;;;;6.20;3.55;;;23.80;59.60;;;;;;6215648;23;20024;-75
2021/06/18 06:43:05;;;;;;;7.35;3.05;;;23.80;60.20;;;;;;6217948;23;20032;-75
2021/06/18 06:45:34;;;;;;;5.47;3.45;;;23.80;59.60;;;;;;6217332;23;20017;-75
2021/06/18 06:48:01;;;;;;;6.93;3.78;;;23.70;60.30;;;;;;6215807;23;20051;-75
2021/06/18 06:50:28;;;;;;;6.45;3.67;;;23.60;60.90;;;;;;6216984;23;20264;-77
2021/06/18 06:52:55;;;;;;;6.35;3.88;;;23.60;61.10;;;;;;6216100;23;20029;-75
2021/06/18 06:55:23;;;;;;;7.22;3.72;;;23.60;60.70;;;;;;6217140;23;20224;-77
2021/06/18 06:57:51;;;;;;;5.57;3.97;;;23.60;60.40;;;;;;6215778;23;20036;-77
2021/06/18 07:00:19;;;;;;;12.70;4.80;;;23.70;59.90;;;;;;6209564;23;20016;-77
2021/06/18 07:02:48;;;;;;;7.47;3.60;;;23.80;60.00;;;;;;6214492;23;20029;-77
2021/06/18 07:05:15;;;;;;;5.40;3.35;;;23.80;59.30;;;;;;6213188;23;20110;-77
2021/06/18 07:07:42;;;;;;;5.43;3.25;;;24.00;58.70;;;;;;6213558;23;20021;-77
2021/06/18 07:10:11;;;;;;;8.30;3.63;;;24.00;58.50;;;;;;6216247;23;20020;-77
2021/06/18 07:12:38;;;;;;;6.43;3.22;;;24.10;58.10;;;;;;6215605;23;20308;-77
2021/06/18 07:15:07;;;;;;;5.55;3.65;;;24.30;57.90;;;;;;6215701;23;20040;-77
2021/06/18 07:17:34;;;;;;;5.65;3.92;;;24.40;56.60;;;;;;6215508;23;20024;-77
2021/06/18 07:20:06;;;;;;;8.75;3.88;;;24.50;56.80;;;;;;6214921;23;20024;-77
2021/06/18 07:22:34;;;;;;;5.57;3.45;;;24.70;56.20;;;;;;6240453;23;20032;-77
2021/06/18 07:25:01;;;;;;;6.38;3.55;;;24.70;55.50;;;;;;6213215;23;20025;-76
2021/06/18 07:27:29;;;;;;;10.18;3.78;;;24.90;55.80;;;;;;6217477;23;20024;-77
2021/06/18 07:29:56;;;;;;;4.68;3.00;;;25.10;56.10;;;;;;6217698;23;20176;-76
2021/06/18 07:32:24;;;;;;;5.28;2.85;;;25.20;55.70;;;;;;6217227;23;20020;-76
2021/06/18 07:34:51;;;;;;;5.20;3.60;;;25.40;55.30;;;;;;6215353;23;20020;-76
2021/06/18 07:37:19;;;;;;;7.82;3.58;;;25.50;54.30;;;;;;6217417;23;20030;-77
2021/06/18 07:39:47;;;;;;;5.22;2.97;;;25.60;54.50;;;;;;6215889;23;20024;-76
2021/06/18 07:42:14;;;;;;;5.07;3.03;;;25.80;54.90;;;;;;6211564;23;20078;-77
2021/06/18 07:44:41;;;;;;;8.25;3.50;;;26.00;53.70;;;;;;6214056;23;20023;-77
2021/06/18 07:47:09;;;;;;;7.35;4.03;;;26.10;54.00;;;;;;6215994;23;20320;-76
2021/06/18 07:49:37;;;;;;;5.05;3.35;;;26.30;52.90;;;;;;6214949;23;20024;-77
2021/06/18 07:52:05;;;;;;;6.38;3.65;;;26.30;52.20;;;;;;6219660;23;20024;-75
2021/06/18 07:54:33;;;;;;;9.02;3.42;;;26.20;52.10;;;;;;6217747;23;20392;-75
2021/06/18 07:57:01;;;;;;;4.07;2.67;;;26.30;52.90;;;;;;6217308;23;20075;-74
2021/06/18 07:59:30;;;;;;;5.00;3.40;;;26.50;52.90;;;;;;6217304;23;20274;-76
2021/06/18 08:01:59;;;;;;;5.13;3.20;;;26.60;52.40;;;;;;6210302;23;20067;-75
2021/06/18 08:04:26;;;;;;;7.47;3.38;;;26.80;52.10;;;;;;6218744;23;20028;-74
2021/06/18 08:06:53;;;;;;;5.13;3.60;;;26.90;51.60;;;;;;6241360;23;20051;-75
2021/06/18 08:09:23;;;;;;;5.40;3.28;;;27.10;51.20;;;;;;6218651;23;20254;-75
2021/06/18 08:11:52;;;;;;;8.18;3.45;;;27.10;51.60;;;;;;6218151;23;20035;-76
2021/06/18 08:14:20;;;;;;;5.22;3.80;;;27.30;51.50;;;;;;6216241;23;20072;-76
2021/06/18 08:16:47;;;;;;;5.93;3.80;;;27.40;51.10;;;;;;6217001;23;20032;-75
2021/06/18 08:19:14;;;;;;;6.82;3.75;;;27.50;49.90;;;;;;6214808;23;20324;-76
2021/06/18 08:21:42;;;;;;;7.40;3.55;;;27.50;50.40;;;;;;6217459;23;20025;-76
2021/06/18 08:24:09;;;;;;;5.72;3.40;;;27.60;50.10;;;;;;6217300;23;20070;-76
2021/06/18 08:26:38;;;;;;;7.03;3.78;;;27.60;50.10;;;;;;6216849;23;20036;-75
2021/06/18 08:29:08;;;;;;;6.57;3.97;;;27.50;50.50;;;;;;6222980;23;20075;-75
2021/06/18 08:31:36;;;;;;;5.18;3.38;;;27.60;50.90;;;;;;6217206;23;20029;-75
2021/06/18 08:34:04;;;;;;;5.37;3.80;;;27.80;49.70;;;;;;6219551;23;20024;-76
2021/06/18 08:36:31;;;;;;;13.32;4.53;;;27.80;47.10;;;;;;6216451;23;20121;-76
2021/06/18 08:38:58;;;;;;;7.22;4.05;;;27.80;48.00;;;;;;6238275;23;20028;-77
2021/06/18 08:41:26;;;;;;;5.85;4.00;;;28.00;46.30;;;;;;6218021;23;20031;-76
2021/06/18 08:43:53;;;;;;;7.43;3.70;;;28.10;46.20;;;;;;6217497;23;20043;-75
2021/06/18 08:46:22;;;;;;;5.63;4.05;;;28.20;45.00;;;;;;6216060;23;20044;-75
2021/06/18 08:48:51;;;;;;;;;;;28.40;45.20;;;;;;6220936;23;20076;-75
2021/06/18 08:51:19;;;;;;;6.47;3.90;;;28.40;43.50;;;;;;6218410;23;19920;-75
2021/06/18 08:53:47;;;;;;;6.57;3.67;;;28.50;43.30;;;;;;6239689;23;20024;-75
2021/06/18 08:56:15;;;;;;;5.20;3.37;;;28.60;43.20;;;;;;6214237;23;20025;-75
2021/06/18 08:58:42;;;;;;;7.50;4.00;;;28.70;43.80;;;;;;6216249;23;20022;-75
2021/06/18 09:01:10;;;;;;;8.30;3.33;;;28.80;43.60;;;;;;6210816;23;20025;-75
2021/06/18 09:03:42;;;;;;;5.82;3.55;;;28.90;42.90;;;;;;6213476;23;20038;-75
2021/06/18 09:06:33;;;;;;;6.63;3.15;;;29.10;42.00;;;;;;6213703;23;20028;-76
2021/06/18 09:09:14;;;;;;;4.75;2.60;;;29.30;42.80;;;;;;6215031;23;20028;-76
2021/06/18 09:11:44;;;;;;;5.22;3.28;;;29.50;42.90;;;;;;6215317;23;20096;-76
2021/06/18 09:14:18;;;;;;;;;;;29.60;42.40;;;;;;6214912;23;20027;-75
2021/06/18 09:17:10;;;;;;;5.40;3.30;;;29.60;42.00;;;;;;6238544;23;19930;-76
2021/06/18 09:19:42;;;;;;;6.00;3.97;;;29.60;42.20;;;;;;6217532;23;20389;-76
2021/06/18 09:22:12;;;;;;;5.65;3.25;;;29.80;42.10;;;;;;6212641;23;20210;-76
2021/06/18 09:24:43;;;;;;;5.22;3.50;;;29.90;42.50;;;;;;6213881;23;20021;-76
2021/06/18 09:27:11;;;;;;;5.25;3.65;;;30.00;41.20;;;;;;6215148;23;20020;-76
2021/06/18 09:29:38;;;;;;;6.35;2.97;;;29.90;40.70;;;;;;6212628;23;20021;-76
2021/06/18 09:32:08;;;;;;;5.00;3.10;;;30.00;42.20;;;;;;6215149;23;20271;-76
2021/06/18 09:34:45;;;;;;;;;;;30.00;42.60;;;;;;6215108;23;20216;-76
2021/06/18 09:37:22;;;;;;;4.95;3.28;;;30.00;42.60;;;;;;6214016;23;19946;-74
2021/06/18 09:40:15;;;;;;;6.07;3.58;;;30.10;39.90;;;;;;6213727;23;20063;-74
2021/06/18 09:42:53;;;;;;;4.53;3.10;;;30.10;38.70;;;;;;6187947;23;20029;-75
2021/06/18 09:45:22;;;;;;;4.03;3.00;;;30.20;40.10;;;;;;6240116;23;20033;-77
2021/06/18 09:47:49;;;;;;;;;;;30.40;38.70;;;;;;6220271;23;20354;-77
2021/06/18 09:50:26;;;;;;;6.40;3.67;;;30.60;39.60;;;;;;6215056;23;20462;-76
2021/06/18 09:53:10;;;;;;;4.43;2.97;;;30.60;40.00;;;;;;6216041;23;20025;-76
2021/06/18 09:55:37;;;;;;;4.47;3.10;;;30.80;40.70;;;;;;6240179;23;20016;-76
2021/06/18 09:58:05;;;;;;;6.80;4.00;;;30.80;40.00;;;;;;6217383;23;20036;-75
2021/06/18 10:00:32;;;;;;;5.22;3.60;;;30.90;38.40;;;;;;6212243;23;20031;-75
2021/06/18 10:03:02;;;;;;;6.57;3.60;;;31.10;38.60;;;;;;6215434;23;20074;-75
2021/06/18 10:05:33;;;;;;;4.97;3.13;;;31.30;37.80;;;;;;6216181;23;20027;-75
2021/06/18 10:08:02;;;;;;;11.00;3.67;;;31.60;38.30;;;;;;6216346;23;20261;-75
2021/06/18 10:10:32;;;;;;;5.72;3.13;;;31.80;37.00;;;;;;6210968;23;20020;-75
2021/06/18 10:13:00;;;;;;;4.10;2.90;;;32.10;36.50;;;;;;6212926;23;20066;-77
2021/06/18 10:15:37;;;;;;;8.93;3.20;;;32.40;37.00;;;;;;6215101;23;20032;-75
2021/06/18 10:18:10;;;;;;;6.25;3.30;;;32.70;35.10;;;;;;6242743;23;20332;-75
2021/06/18 10:20:38;;;;;;;7.32;3.58;;;33.00;33.80;;;;;;6214931;23;20028;-76
2021/06/18 10:23:10;;;;;;;5.82;3.05;;;33.30;35.60;;;;;;6214869;23;20355;-76
2021/06/18 10:25:40;;;;;;;5.35;3.25;;;33.60;35.10;;;;;;6214218;23;20031;-75
2021/06/18 10:28:10;;;;;;;5.57;3.28;;;34.00;34.10;;;;;;6212008;23;20029;-75
2021/06/18 10:30:45;;;;;;;4.95;3.13;;;34.20;32.80;;;;;;6217931;23;20031;-75
2021/06/18 10:33:33;;;;;;;4.60;3.15;;;34.80;30.50;;;;;;6214811;23;20035;-75
2021/06/18 10:36:02;;;;;;;7.55;3.58;;;35.20;28.90;;;;;;6215043;23;20040;-75
2021/06/18 10:38:34;;;;;;;5.38;3.10;;;35.60;30.00;;;;;;6214487;23;20035;-75
2021/06/18 10:41:03;;;;;;;5.15;3.08;;;36.40;27.40;;;;;;6215973;23;20072;-75
2021/06/18 10:43:42;;;;;;;8.10;3.22;;;37.40;25.70;;;;;;6214008;23;20084;-75
2021/06/18 10:46:17;;;;;;;5.88;2.80;;;38.30;25.50;;;;;;6215173;23;20012;-75
2021/06/18 10:49:08;;;;;;;5.22;2.65;;;38.80;25.00;;;;;;6236866;23;20044;-75
2021/06/18 10:51:39;;;;;;;4.65;2.70;;;39.70;25.10;;;;;;6213827;23;20330;-77
2021/06/18 10:54:11;;;;;;;4.30;2.40;;;40.10;24.90;;;;;;6218555;23;20016;-75
2021/06/18 10:57:02;;;;;;;3.50;2.63;;;40.40;24.50;;;;;;6215025;23;20074;-75
2021/06/18 10:59:38;;;;;;;4.63;2.45;;;41.00;23.40;;;;;;6214183;23;20046;-75
2021/06/18 11:02:37;;;;;;;4.78;2.78;;;41.30;22.90;;;;;;6209175;23;20055;-75
2021/06/18 11:05:30;;;;;;;5.13;3.20;;;42.00;22.80;;;;;;6214802;23;20021;-76
2021/06/18 11:08:16;;;;;;;5.75;2.85;;;41.50;22.00;;;;;;6218060;23;20040;-75
2021/06/18 11:10:46;;;;;;;5.55;2.63;;;41.80;22.90;;;;;;6213080;23;20028;-75
2021/06/18 11:13:18;;;;;;;4.72;2.50;;;40.70;20.40;;;;;;6216220;23;20032;-75
2021/06/18 11:15:50;;;;;;;4.43;2.50;;;40.50;21.20;;;;;;6216157;23;20288;-75
2021/06/18 11:18:19;;;;;;;6.83;2.80;;;41.50;19.00;;;;;;6217530;23;20271;-75
2021/06/18 11:20:57;;;;;;;4.80;2.90;;;41.80;19.90;;;;;;6214207;23;20028;-75
2021/06/18 11:23:27;;;;;;;3.60;2.60;;;42.80;20.90;;;;;;6212475;23;20046;-75
2021/06/18 11:26:02;;;;;;;4.05;2.53;;;43.30;19.20;;;;;;6214467;23;20024;-76
2021/06/18 11:28:54;;;;;;;5.75;2.88;;;43.80;18.30;;;;;;6216595;23;20067;-76
2021/06/18 11:31:43;;;;;;;3.90;2.63;;;43.90;19.00;;;;;;6236354;23;20040;-76
2021/06/18 11:34:34;;;;;;;7.38;2.65;;;44.50;18.80;;;;;;6214599;23;20028;-75
2021/06/18 11:37:01;;;;;;;4.90;2.40;;;45.40;18.10;;;;;;6194714;23;20028;-75
2021/06/18 11:39:30;;;;;;;7.43;3.10;;;45.40;18.50;;;;;;6215958;23;20342;-76
2021/06/18 11:42:08;;;;;;;5.78;3.08;;;44.70;18.00;;;;;;6217741;23;20078;-75
2021/06/18 11:44:37;;;;;;;4.28;2.55;;;45.10;18.60;;;;;;6217014;23;20017;-76
2021/06/18 11:47:05;;;;;;;2.78;2.33;;;45.50;18.90;;;;;;6220522;23;20208;-76
2021/06/18 11:49:44;;;;;;;6.68;2.47;;;45.30;17.90;;;;;;6219107;23;20217;-76
2021/06/18 11:52:13;;;;;;;3.45;2.35;;;45.20;18.00;;;;;;6219453;23;20255;-76
2021/06/18 11:54:42;;;;;;;4.85;3.17;;;45.30;18.30;;;;;;6220247;23;20063;-77
2021/06/18 11:57:21;;;;;;;5.15;2.60;;;45.80;17.80;;;;;;6220200;23;20025;-76
2021/06/18 11:59:54;;;;;;;3.83;2.72;;;46.40;17.50;;;;;;6222665;23;20016;-76
2021/06/18 12:02:23;;;;;;;5.45;2.70;;;46.40;17.10;;;;;;6217451;23;20346;-76
2021/06/18 12:05:09;;;;;;;3.45;2.33;;;46.30;17.40;;;;;;6222412;23;20027;-76
2021/06/18 12:07:37;;;;;;;3.65;2.60;;;46.70;17.20;;;;;;6248164;23;20020;-76
2021/06/18 12:10:06;;;;;;;5.47;3.10;;;46.60;17.50;;;;;;6222746;23;20027;-75
2021/06/18 12:12:46;;;;;;;3.25;2.20;;;47.00;17.20;;;;;;6215614;23;20016;-76
2021/06/18 12:15:26;;;;;;;3.95;2.85;;;47.40;17.80;;;;;;6220802;23;20220;-77
2021/06/18 12:17:57;;;;;;;3.92;2.70;;;47.30;17.50;;;;;;6245794;23;20051;-76
2021/06/18 12:20:26;;;;;;;3.65;2.58;;;47.00;17.40;;;;;;6220115;23;20076;-77
2021/06/18 12:22:53;;;;;;;4.32;3.10;;;47.40;18.00;;;;;;6222753;23;20047;-77
2021/06/18 12:25:21;;;;;;;3.80;3.05;;;46.50;17.90;;;;;;6220139;23;20012;-77
2021/06/18 12:27:58;;;;;;;3.65;2.70;;;45.60;17.90;;;;;;6221947;23;20031;-78
2021/06/18 12:30:32;;;;;;;5.30;3.20;;;45.00;19.40;;;;;;6221397;23;20215;-77
2021/06/18 12:33:00;;;;;;;4.50;3.03;;;44.40;20.10;;;;;;6220555;23;20016;-77
2021/06/18 12:35:33;;;;;;;;;;;45.50;18.90;;;;;;6244000;23;20208;-77
2021/06/18 12:38:03;;;;;;;3.97;2.65;;;46.00;19.20;;;;;;6220257;23;20107;-77
2021/06/18 12:40:32;;;;;;;7.07;3.30;;;46.20;19.40;;;;;;6244807;23;20304;-77
2021/06/18 12:43:07;;;;;;;4.18;2.78;;;45.40;19.50;;;;;;6220525;23;20050;-77
2021/06/18 12:45:41;;;;;;;5.57;3.22;;;44.00;20.20;;;;;;6221271;23;20016;-77
2021/06/18 12:48:10;;;;;;;4.82;3.85;;;43.90;20.90;;;;;;6220391;23;20025;-76
2021/06/18 12:50:40;;;;;;;5.07;2.67;;;43.70;19.60;;;;;;6219136;23;20024;-77
2021/06/18 12:53:09;;;;;;;4.28;2.80;;;42.70;19.80;;;;;;6220055;23;20016;-76
2021/06/18 12:55:38;;;;;;;4.50;3.05;;;41.40;23.00;;;;;;6219284;23;20071;-76
2021/06/18 12:58:09;;;;;;;6.13;3.25;;;39.80;24.30;;;;;;6221227;23;20029;-76
2021/06/18 13:00:52;;;;;;;4.78;3.10;;;39.70;22.90;;;;;;6213733;23;20371;-76
2021/06/18 13:03:32;;;;;;;6.00;3.25;;;39.50;23.50;;;;;;6220874;23;20076;-76
2021/06/18 13:06:00;;;;;;;4.50;2.95;;;38.90;25.20;;;;;;6218252;23;20083;-76